sensor_id;sensor_type;location;lat;lon;timestamp;pressure;altitude;pressure_sealevel;temperature;humidity
14295;BME280;7231;59.370;18.016;2022-09-09T00:02:19;102032.41;;;10.58;75.60
14295;BME280;7231;59.370;18.016;2022-09-09T00:04:58;101993.53;;;10.49;75.65
14295;BME280;7231;59.370;18.016;2022-09-09T00:07:36;102041.28;;;10.79;75.76
14295;BME280;7231;59.370;18.016;2022-09-09T00:10:15;102075.84;;;11.07;75.71
14295;BME280;7231;59.370;18.016;2022-09-09T00:12:53;102077.91;;;11.15;75.74
14295;BME280;7231;59.370;18.016;2022-09-09T00:15:25;102077.28;;;11.20;75.44
14295;BME280;7231;59.370;18.016;2022-09-09T00:17:58;102072.38;;;11.28;74.92
14295;BME280;7231;59.370;18.016;2022-09-09T00:20:37;102077.97;;;11.35;74.51
14295;BME280;7231;59.370;18.016;2022-09-09T00:23:12;102070.38;;;11.42;74.08
14295;BME280;7231;59.370;18.016;2022-09-09T00:25:46;102022.22;;;11.22;73.68
14295;BME280;7231;59.370;18.016;2022-09-09T00:28:19;102065.59;;;11.52;73.57
14295;BME280;7231;59.370;18.016;2022-09-09T00:30:47;102070.22;;;11.58;72.72
14295;BME280;7231;59.370;18.016;2022-09-09T00:33:18;102076.56;;;11.63;72.49
14295;BME280;7231;59.370;18.016;2022-09-09T00:35:52;102016.69;;;11.35;72.09
14295;BME280;7231;59.370;18.016;2022-09-09T00:38:25;102032.09;;;11.47;71.46
14295;BME280;7231;59.370;18.016;2022-09-09T00:40:59;102066.66;;;11.77;71.61
14295;BME280;7231;59.370;18.016;2022-09-09T00:43:30;102030.13;;;11.62;71.32
14295;BME280;7231;59.370;18.016;2022-09-09T00:46:14;102038.38;;;11.71;70.54
14295;BME280;7231;59.370;18.016;2022-09-09T00:48:53;102057.47;;;11.86;70.30
14295;BME280;7231;59.370;18.016;2022-09-09T00:51:35;102059.44;;;11.92;69.60
14295;BME280;7231;59.370;18.016;2022-09-09T00:54:16;102014.88;;;11.74;68.62
14295;BME280;7231;59.370;18.016;2022-09-09T00:56:53;102035.72;;;11.90;68.31
14295;BME280;7231;59.370;18.016;2022-09-09T00:59:28;102001.13;;;11.80;67.84
14295;BME280;7231;59.370;18.016;2022-09-09T01:02:07;102026.38;;;11.97;67.51
14295;BME280;7231;59.370;18.016;2022-09-09T01:04:41;102051.63;;;12.14;66.96
14295;BME280;7231;59.370;18.016;2022-09-09T01:07:16;102037.75;;;12.18;66.52
14295;BME280;7231;59.370;18.016;2022-09-09T01:09:56;101985.78;;;11.90;66.05
14295;BME280;7231;59.370;18.016;2022-09-09T01:12:32;102016.53;;;12.14;66.22
14295;BME280;7231;59.370;18.016;2022-09-09T01:15:09;102023.84;;;12.21;65.89
14295;BME280;7231;59.370;18.016;2022-09-09T01:17:46;102040.22;;;12.36;66.01
14295;BME280;7231;59.370;18.016;2022-09-09T01:20:19;102036.81;;;12.39;65.92
14295;BME280;7231;59.370;18.016;2022-09-09T01:23:00;102009.16;;;12.26;65.97
14295;BME280;7231;59.370;18.016;2022-09-09T01:26:10;102016.69;;;12.39;65.47
14295;BME280;7231;59.370;18.016;2022-09-09T01:28:43;101969.16;;;12.12;65.65
14295;BME280;7231;59.370;18.016;2022-09-09T01:31:16;102027.56;;;12.48;65.90
14295;BME280;7231;59.370;18.016;2022-09-09T01:33:45;102007.00;;;12.38;66.12
14295;BME280;7231;59.370;18.016;2022-09-09T01:36:19;102032.06;;;12.51;66.20
14295;BME280;7231;59.370;18.016;2022-09-09T01:38:49;102027.81;;;12.54;66.03
14295;BME280;7231;59.370;18.016;2022-09-09T01:41:19;102030.50;;;12.56;65.79
14295;BME280;7231;59.370;18.016;2022-09-09T01:43:47;101960.84;;;12.24;66.22
14295;BME280;7231;59.370;18.016;2022-09-09T01:46:16;102023.69;;;12.61;66.28
14295;BME280;7231;59.370;18.016;2022-09-09T01:48:45;102004.91;;;12.52;66.00
14295;BME280;7231;59.370;18.016;2022-09-09T01:51:13;102030.84;;;12.65;66.03
14295;BME280;7231;59.370;18.016;2022-09-09T01:53:41;102025.59;;;12.65;66.22
14295;BME280;7231;59.370;18.016;2022-09-09T01:56:21;102031.75;;;12.65;66.17
14295;BME280;7231;59.370;18.016;2022-09-09T01:59:03;102024.81;;;12.67;66.54
14295;BME280;7231;59.370;18.016;2022-09-09T02:01:45;101960.50;;;12.37;66.62
14295;BME280;7231;59.370;18.016;2022-09-09T02:04:28;102017.03;;;12.71;66.81
14295;BME280;7231;59.370;18.016;2022-09-09T02:07:00;101950.88;;;12.38;66.60
14295;BME280;7231;59.370;18.016;2022-09-09T02:09:30;101958.94;;;12.42;66.70
14295;BME280;7231;59.370;18.016;2022-09-09T02:12:03;102007.47;;;12.73;67.03
14295;BME280;7231;59.370;18.016;2022-09-09T02:14:37;101924.09;;;12.25;66.99
14295;BME280;7231;59.370;18.016;2022-09-09T02:17:09;102001.34;;;12.74;66.96
14295;BME280;7231;59.370;18.016;2022-09-09T02:19:41;102002.31;;;12.76;67.31
14295;BME280;7231;59.370;18.016;2022-09-09T02:22:11;101984.50;;;12.68;67.20
14295;BME280;7231;59.370;18.016;2022-09-09T02:24:40;101986.41;;;12.73;67.74
14295;BME280;7231;59.370;18.016;2022-09-09T02:27:10;101975.66;;;12.66;67.58
14295;BME280;7231;59.370;18.016;2022-09-09T02:29:40;101985.84;;;12.81;67.85
14295;BME280;7231;59.370;18.016;2022-09-09T02:32:13;101993.81;;;12.83;67.73
14295;BME280;7231;59.370;18.016;2022-09-09T02:34:45;101989.50;;;12.85;68.04
14295;BME280;7231;59.370;18.016;2022-09-09T02:37:17;101977.78;;;12.77;68.19
14295;BME280;7231;59.370;18.016;2022-09-09T02:39:46;101989.66;;;12.89;67.67
14295;BME280;7231;59.370;18.016;2022-09-09T02:42:16;101989.78;;;12.92;68.09
14295;BME280;7231;59.370;18.016;2022-09-09T02:44:45;101990.69;;;12.93;67.91
14295;BME280;7231;59.370;18.016;2022-09-09T02:47:25;101984.56;;;12.94;68.41
14295;BME280;7231;59.370;18.016;2022-09-09T02:50:02;101983.72;;;12.95;68.41
14295;BME280;7231;59.370;18.016;2022-09-09T02:52:42;101956.97;;;12.83;68.65
14295;BME280;7231;59.370;18.016;2022-09-09T02:55:17;101982.94;;;12.97;68.57
14295;BME280;7231;59.370;18.016;2022-09-09T02:57:50;101965.97;;;12.89;68.32
14295;BME280;7231;59.370;18.016;2022-09-09T03:00:23;101980.44;;;13.02;68.35
14295;BME280;7231;59.370;18.016;2022-09-09T03:02:52;101971.69;;;13.03;68.20
14295;BME280;7231;59.370;18.016;2022-09-09T03:05:21;101972.66;;;13.05;68.29
14295;BME280;7231;59.370;18.016;2022-09-09T03:07:49;101971.81;;;13.06;68.38
14295;BME280;7231;59.370;18.016;2022-09-09T03:10:17;101970.97;;;13.07;68.29
14295;BME280;7231;59.370;18.016;2022-09-09T03:12:45;101973.66;;;13.09;68.30
14295;BME280;7231;59.370;18.016;2022-09-09T03:15:15;101963.06;;;13.07;68.13
14295;BME280;7231;59.370;18.016;2022-09-09T03:17:43;101888.91;;;12.70;68.38
14295;BME280;7231;59.370;18.016;2022-09-09T03:20:11;101961.44;;;13.11;68.21
14295;BME280;7231;59.370;18.016;2022-09-09T03:22:40;101941.84;;;13.02;68.23
14295;BME280;7231;59.370;18.016;2022-09-09T03:25:08;101958.81;;;13.11;68.23
14295;BME280;7231;59.370;18.016;2022-09-09T03:27:36;101953.50;;;13.09;68.27
14295;BME280;7231;59.370;18.016;2022-09-09T03:30:05;101930.22;;;12.96;68.21
14295;BME280;7231;59.370;18.016;2022-09-09T03:32:35;101880.00;;;12.66;68.31
14295;BME280;7231;59.370;18.016;2022-09-09T03:35:03;101912.22;;;12.83;68.65
14295;BME280;7231;59.370;18.016;2022-09-09T03:37:31;101899.50;;;12.71;68.39
14295;BME280;7231;59.370;18.016;2022-09-09T03:39:59;101941.78;;;13.01;68.53
14295;BME280;7231;59.370;18.016;2022-09-09T03:42:27;101946.16;;;13.00;68.73
14295;BME280;7231;59.370;18.016;2022-09-09T03:44:56;101940.88;;;12.99;68.73
14295;BME280;7231;59.370;18.016;2022-09-09T03:47:25;101946.97;;;12.98;68.92
14295;BME280;7231;59.370;18.016;2022-09-09T03:49:55;101862.78;;;12.50;68.83
14295;BME280;7231;59.370;18.016;2022-09-09T03:52:23;101851.09;;;12.42;69.38
14295;BME280;7231;59.370;18.016;2022-09-09T03:54:53;101917.47;;;12.83;69.63
14295;BME280;7231;59.370;18.016;2022-09-09T03:57:23;101910.19;;;12.76;69.41
14295;BME280;7231;59.370;18.016;2022-09-09T03:59:51;101941.78;;;13.01;69.76
14295;BME280;7231;59.370;18.016;2022-09-09T04:02:18;101933.88;;;13.01;69.64
14295;BME280;7231;59.370;18.016;2022-09-09T04:04:48;101940.94;;;13.02;69.62
14295;BME280;7231;59.370;18.016;2022-09-09T04:07:17;101936.63;;;13.04;70.18
14295;BME280;7231;59.370;18.016;2022-09-09T04:09:45;101908.31;;;12.97;69.71
14295;BME280;7231;59.370;18.016;2022-09-09T04:12:13;101895.78;;;12.90;70.06
14295;BME280;7231;59.370;18.016;2022-09-09T04:14:40;101935.28;;;13.15;69.93
14295;BME280;7231;59.370;18.016;2022-09-09T04:17:08;101921.03;;;13.10;69.76
14295;BME280;7231;59.370;18.016;2022-09-09T04:19:36;101935.47;;;13.20;69.68
14295;BME280;7231;59.370;18.016;2022-09-09T04:22:04;101930.31;;;13.23;70.14
14295;BME280;7231;59.370;18.016;2022-09-09T04:24:34;101934.84;;;13.27;69.86
14295;BME280;7231;59.370;18.016;2022-09-09T04:27:02;101859.63;;;12.84;69.77
14295;BME280;7231;59.370;18.016;2022-09-09T04:29:30;101937.63;;;13.31;69.77
14295;BME280;7231;59.370;18.016;2022-09-09T04:31:58;101910.06;;;13.22;69.47
14295;BME280;7231;59.370;18.016;2022-09-09T04:34:26;101918.25;;;13.29;69.36
14295;BME280;7231;59.370;18.016;2022-09-09T04:36:54;101934.34;;;13.39;69.31
14295;BME280;7231;59.370;18.016;2022-09-09T04:39:23;101937.94;;;13.41;69.12
14295;BME280;7231;59.370;18.016;2022-09-09T04:41:52;101935.34;;;13.42;69.29
14295;BME280;7231;59.370;18.016;2022-09-09T04:44:20;101936.25;;;13.43;68.96
14295;BME280;7231;59.370;18.016;2022-09-09T04:46:48;101937.16;;;13.43;68.85
14295;BME280;7231;59.370;18.016;2022-09-09T04:49:16;101917.50;;;13.33;68.84
14295;BME280;7231;59.370;18.016;2022-09-09T04:51:44;101891.59;;;13.20;68.54
14295;BME280;7231;59.370;18.016;2022-09-09T04:54:13;101936.41;;;13.47;68.48
14295;BME280;7231;59.370;18.016;2022-09-09T04:56:41;101937.31;;;13.48;68.20
14295;BME280;7231;59.370;18.016;2022-09-09T04:59:11;101935.63;;;13.50;68.16
14295;BME280;7231;59.370;18.016;2022-09-09T05:01:39;101940.03;;;13.51;68.16
14295;BME280;7231;59.370;18.016;2022-09-09T05:04:07;101946.25;;;13.53;67.82
14295;BME280;7231;59.370;18.016;2022-09-09T05:06:35;101935.78;;;13.54;67.64
14295;BME280;7231;59.370;18.016;2022-09-09T05:09:03;101942.88;;;13.57;67.59
14295;BME280;7231;59.370;18.016;2022-09-09T05:11:32;101939.50;;;13.61;67.30
14295;BME280;7231;59.370;18.016;2022-09-09T05:14:02;101940.44;;;13.63;67.80
14295;BME280;7231;59.370;18.016;2022-09-09T05:16:31;101937.97;;;13.68;67.22
14295;BME280;7231;59.370;18.016;2022-09-09T05:19:00;101939.81;;;13.70;67.07
14295;BME280;7231;59.370;18.016;2022-09-09T05:21:29;101931.91;;;13.70;66.87
14295;BME280;7231;59.370;18.016;2022-09-09T05:23:58;101933.94;;;13.79;66.28
14295;BME280;7231;59.370;18.016;2022-09-09T05:26:27;101603.81;;;11.90;65.67
14295;BME280;7231;59.370;18.016;2022-09-09T05:28:55;101942.16;;;13.88;65.21
14295;BME280;7231;59.370;18.016;2022-09-09T05:31:25;101946.78;;;13.95;64.44
14295;BME280;7231;59.370;18.016;2022-09-09T05:33:56;101881.78;;;13.69;63.83
14295;BME280;7231;59.370;18.016;2022-09-09T05:36:25;101897.09;;;13.80;63.62
14295;BME280;7231;59.370;18.016;2022-09-09T05:38:53;101923.22;;;14.01;62.82
14295;BME280;7231;59.370;18.016;2022-09-09T05:41:21;101952.75;;;14.18;62.11
14295;BME280;7231;59.370;18.016;2022-09-09T05:43:49;101948.44;;;14.20;61.33
14295;BME280;7231;59.370;18.016;2022-09-09T05:46:18;101958.88;;;14.17;60.67
14295;BME280;7231;59.370;18.016;2022-09-09T05:48:48;101911.50;;;13.91;60.66
14295;BME280;7231;59.370;18.016;2022-09-09T05:51:20;101957.06;;;14.14;59.80
14295;BME280;7231;59.370;18.016;2022-09-09T05:53:48;101920.25;;;13.90;59.64
14295;BME280;7231;59.370;18.016;2022-09-09T05:56:19;101959.59;;;14.11;59.48
14295;BME280;7231;59.370;18.016;2022-09-09T05:58:49;101927.50;;;13.97;59.26
14295;BME280;7231;59.370;18.016;2022-09-09T06:01:19;101960.50;;;14.12;59.05
14295;BME280;7231;59.370;18.016;2022-09-09T06:03:49;101921.09;;;13.89;59.08
14295;BME280;7231;59.370;18.016;2022-09-09T06:06:19;101918.56;;;13.92;59.01
14295;BME280;7231;59.370;18.016;2022-09-09T06:08:51;101940.25;;;14.11;58.43
14295;BME280;7231;59.370;18.016;2022-09-09T06:11:20;101957.44;;;14.26;58.05
14295;BME280;7231;59.370;18.016;2022-09-09T06:13:50;101954.03;;;14.30;57.95
14295;BME280;7231;59.370;18.016;2022-09-09T06:16:21;101952.38;;;14.34;57.35
14295;BME280;7231;59.370;18.016;2022-09-09T06:18:51;101956.81;;;14.35;57.25
14295;BME280;7231;59.370;18.016;2022-09-09T06:21:23;101963.84;;;14.35;56.67
14295;BME280;7231;59.370;18.016;2022-09-09T06:23:51;101964.69;;;14.34;56.51
14295;BME280;7231;59.370;18.016;2022-09-09T06:26:26;101966.47;;;14.35;56.38
14295;BME280;7231;59.370;18.016;2022-09-09T06:28:55;101951.50;;;14.34;56.04
14295;BME280;7231;59.370;18.016;2022-09-09T06:31:26;101962.00;;;14.32;55.80
14295;BME280;7231;59.370;18.016;2022-09-09T06:33:58;101957.56;;;14.31;55.55
14295;BME280;7231;59.370;18.016;2022-09-09T06:36:29;101897.59;;;13.97;55.10
14295;BME280;7231;59.370;18.016;2022-09-09T06:38:58;101956.63;;;14.29;55.20
14295;BME280;7231;59.370;18.016;2022-09-09T06:41:28;101962.09;;;14.35;54.97
14295;BME280;7231;59.370;18.016;2022-09-09T06:43:57;101923.19;;;14.28;55.10
14295;BME280;7231;59.370;18.016;2022-09-09T06:46:26;101954.00;;;14.57;55.16
14295;BME280;7231;59.370;18.016;2022-09-09T06:48:55;101952.88;;;14.79;55.01
14295;BME280;7231;59.370;18.016;2022-09-09T06:51:25;101949.94;;;15.00;54.37
14295;BME280;7231;59.370;18.016;2022-09-09T06:53:56;101960.72;;;15.08;54.03
14295;BME280;7231;59.370;18.016;2022-09-09T06:56:26;101958.88;;;15.37;54.67
14295;BME280;7231;59.370;18.016;2022-09-09T06:58:56;101943.31;;;15.83;55.06
14295;BME280;7231;59.370;18.016;2022-09-09T07:01:26;101927.56;;;15.88;53.60
14295;BME280;7231;59.370;18.016;2022-09-09T07:03:56;101963.75;;;16.28;53.74
14295;BME280;7231;59.370;18.016;2022-09-09T07:06:26;101969.94;;;16.66;53.21
14295;BME280;7231;59.370;18.016;2022-09-09T07:08:57;101967.13;;;17.02;52.26
14295;BME280;7231;59.370;18.016;2022-09-09T07:11:27;101965.75;;;17.23;50.84
14295;BME280;7231;59.370;18.016;2022-09-09T07:13:57;101949.53;;;17.06;49.85
14295;BME280;7231;59.370;18.016;2022-09-09T07:16:26;101934.38;;;16.99;50.80
14295;BME280;7231;59.370;18.016;2022-09-09T07:18:56;101964.25;;;17.37;50.38
14295;BME280;7231;59.370;18.016;2022-09-09T07:21:25;101947.91;;;17.62;49.85
14295;BME280;7231;59.370;18.016;2022-09-09T07:23:55;101918.13;;;17.77;49.27
14295;BME280;7231;59.370;18.016;2022-09-09T07:26:25;101960.75;;;18.51;48.53
14295;BME280;7231;59.370;18.016;2022-09-09T07:28:54;101954.00;;;18.74;47.01
14295;BME280;7231;59.370;18.016;2022-09-09T07:31:25;101960.81;;;18.56;45.90
14295;BME280;7231;59.370;18.016;2022-09-09T07:33:54;101968.22;;;18.13;45.89
14295;BME280;7231;59.370;18.016;2022-09-09T07:36:24;101965.50;;;18.10;45.98
14295;BME280;7231;59.370;18.016;2022-09-09T07:39:01;101958.31;;;18.01;45.22
14295;BME280;7231;59.370;18.016;2022-09-09T07:41:32;101967.28;;;18.09;45.82
14295;BME280;7231;59.370;18.016;2022-09-09T07:44:04;101927.69;;;18.28;45.28
14295;BME280;7231;59.370;18.016;2022-09-09T07:46:33;101954.09;;;18.82;45.16
14295;BME280;7231;59.370;18.016;2022-09-09T07:49:01;101951.03;;;19.24;44.54
14295;BME280;7231;59.370;18.016;2022-09-09T07:51:32;101952.41;;;19.73;43.77
14295;BME280;7231;59.370;18.016;2022-09-09T07:54:03;101941.16;;;20.14;43.02
14295;BME280;7231;59.370;18.016;2022-09-09T07:56:32;101962.72;;;20.54;42.80
14295;BME280;7231;59.370;18.016;2022-09-09T07:59:00;101962.72;;;20.54;42.06
14295;BME280;7231;59.370;18.016;2022-09-09T08:01:33;101950.75;;;19.89;41.63
14295;BME280;7231;59.370;18.016;2022-09-09T08:04:05;101953.41;;;18.98;42.26
14295;BME280;7231;59.370;18.016;2022-09-09T08:06:36;101974.66;;;18.33;43.12
14295;BME280;7231;59.370;18.016;2022-09-09T08:09:06;101971.44;;;17.94;44.00
14295;BME280;7231;59.370;18.016;2022-09-09T08:11:36;101973.63;;;18.19;44.57
14295;BME280;7231;59.370;18.016;2022-09-09T08:14:05;101953.19;;;18.15;44.18
14295;BME280;7231;59.370;18.016;2022-09-09T08:16:35;101973.34;;;18.01;43.67
14295;BME280;7231;59.370;18.016;2022-09-09T08:19:04;101978.88;;;17.63;43.76
14295;BME280;7231;59.370;18.016;2022-09-09T08:21:35;101994.13;;;17.27;44.56
14295;BME280;7231;59.370;18.016;2022-09-09T08:24:10;101983.88;;;17.00;45.16
14295;BME280;7231;59.370;18.016;2022-09-09T08:26:39;101979.84;;;16.76;45.41
14295;BME280;7231;59.370;18.016;2022-09-09T08:29:09;101994.97;;;16.82;46.06
14295;BME280;7231;59.370;18.016;2022-09-09T08:31:40;101847.97;;;16.18;46.38
14295;BME280;7231;59.370;18.016;2022-09-09T08:34:09;101989.16;;;17.00;46.14
14295;BME280;7231;59.370;18.016;2022-09-09T08:36:39;101993.03;;;17.17;46.96
14295;BME280;7231;59.370;18.016;2022-09-09T08:39:09;101982.28;;;18.07;47.39
14295;BME280;7231;59.370;18.016;2022-09-09T08:41:55;101982.41;;;18.78;45.20
14295;BME280;7231;59.370;18.016;2022-09-09T08:44:38;101982.34;;;18.74;43.98
14295;BME280;7231;59.370;18.016;2022-09-09T08:47:21;101985.38;;;18.39;43.74
14295;BME280;7231;59.370;18.016;2022-09-09T08:50:13;101999.25;;;18.17;44.01
14295;BME280;7231;59.370;18.016;2022-09-09T08:52:51;101941.81;;;17.66;44.23
14295;BME280;7231;59.370;18.016;2022-09-09T08:55:25;101982.69;;;17.77;44.58
14295;BME280;7231;59.370;18.016;2022-09-09T08:57:57;101982.53;;;17.68;45.21
14295;BME280;7231;59.370;18.016;2022-09-09T09:00:34;101979.78;;;17.65;45.65
14295;BME280;7231;59.370;18.016;2022-09-09T09:03:08;101988.59;;;18.14;46.92
14295;BME280;7231;59.370;18.016;2022-09-09T09:05:46;101975.47;;;18.91;45.84
14295;BME280;7231;59.370;18.016;2022-09-09T09:08:22;101981.69;;;18.92;44.55
14295;BME280;7231;59.370;18.016;2022-09-09T09:10:58;101913.41;;;18.16;44.30
14295;BME280;7231;59.370;18.016;2022-09-09T09:13:31;101788.00;;;17.12;44.92
14295;BME280;7231;59.370;18.016;2022-09-09T09:16:14;101980.22;;;18.50;44.82
14295;BME280;7231;59.370;18.016;2022-09-09T09:18:47;101979.69;;;18.74;44.24
14295;BME280;7231;59.370;18.016;2022-09-09T09:21:18;101970.75;;;18.69;43.67
14295;BME280;7231;59.370;18.016;2022-09-09T09:23:54;101985.56;;;18.52;43.51
14295;BME280;7231;59.370;18.016;2022-09-09T09:26:30;101981.50;;;18.13;43.99
14295;BME280;7231;59.370;18.016;2022-09-09T09:29:01;101977.63;;;17.93;44.11
14295;BME280;7231;59.370;18.016;2022-09-09T09:31:36;101993.28;;;17.76;44.44
14295;BME280;7231;59.370;18.016;2022-09-09T09:34:04;101794.13;;;17.09;45.11
14295;BME280;7231;59.370;18.016;2022-09-09T09:36:40;101979.06;;;18.95;44.74
14295;BME280;7231;59.370;18.016;2022-09-09T09:39:09;101946.25;;;18.93;43.82
14295;BME280;7231;59.370;18.016;2022-09-09T09:42:08;101973.88;;;19.05;43.45
14295;BME280;7231;59.370;18.016;2022-09-09T09:44:37;101977.44;;;19.07;43.35
14295;BME280;7231;59.370;18.016;2022-09-09T09:47:07;101972.06;;;19.03;43.08
14295;BME280;7231;59.370;18.016;2022-09-09T09:49:35;101965.81;;;18.98;43.31
14295;BME280;7231;59.370;18.016;2022-09-09T09:52:04;101967.59;;;18.99;43.26
14295;BME280;7231;59.370;18.016;2022-09-09T09:54:34;101968.66;;;19.14;43.28
14295;BME280;7231;59.370;18.016;2022-09-09T09:57:14;101967.78;;;19.16;42.70
14295;BME280;7231;59.370;18.016;2022-09-09T09:59:42;101911.03;;;18.41;42.89
14295;BME280;7231;59.370;18.016;2022-09-09T10:02:16;101869.09;;;18.12;43.59
14295;BME280;7231;59.370;18.016;2022-09-09T10:04:45;101952.22;;;18.72;43.57
14295;BME280;7231;59.370;18.016;2022-09-09T10:07:18;101947.75;;;18.69;43.72
14295;BME280;7231;59.370;18.016;2022-09-09T10:09:50;101956.91;;;18.94;43.55
14295;BME280;7231;59.370;18.016;2022-09-09T10:12:31;101956.03;;;18.95;43.34
14295;BME280;7231;59.370;18.016;2022-09-09T10:15:07;101944.19;;;18.69;43.71
14295;BME280;7231;59.370;18.016;2022-09-09T10:17:50;101877.25;;;18.29;43.52
14295;BME280;7231;59.370;18.016;2022-09-09T10:20:32;101924.66;;;18.65;43.55
14295;BME280;7231;59.370;18.016;2022-09-09T10:23:11;101943.63;;;18.94;43.02
14295;BME280;7231;59.370;18.016;2022-09-09T10:25:57;101950.97;;;19.18;42.67
14295;BME280;7231;59.370;18.016;2022-09-09T10:28:49;101948.44;;;19.32;43.18
14295;BME280;7231;59.370;18.016;2022-09-09T10:31:25;101946.47;;;20.14;43.13
14295;BME280;7231;59.370;18.016;2022-09-09T10:34:02;101937.13;;;21.07;41.31
14295;BME280;7231;59.370;18.016;2022-09-09T10:36:39;101942.56;;;21.52;40.08
14295;BME280;7231;59.370;18.016;2022-09-09T10:39:20;101954.13;;;21.64;39.49
14295;BME280;7231;59.370;18.016;2022-09-09T10:41:59;101888.25;;;21.76;38.79
14295;BME280;7231;59.370;18.016;2022-09-09T10:44:51;101936.16;;;22.58;38.15
14295;BME280;7231;59.370;18.016;2022-09-09T10:47:42;101948.69;;;22.50;37.78
14295;BME280;7231;59.370;18.016;2022-09-09T10:50:29;101947.00;;;22.05;37.94
14295;BME280;7231;59.370;18.016;2022-09-09T10:53:27;101929.16;;;21.21;38.64
14295;BME280;7231;59.370;18.016;2022-09-09T10:56:04;101926.31;;;20.57;39.58
14295;BME280;7231;59.370;18.016;2022-09-09T10:58:40;101963.66;;;20.63;39.64
14295;BME280;7231;59.370;18.016;2022-09-09T11:01:15;101953.84;;;20.56;39.71
14295;BME280;7231;59.370;18.016;2022-09-09T11:03:49;101939.72;;;20.77;39.88
14295;BME280;7231;59.370;18.016;2022-09-09T11:06:21;101930.91;;;21.21;39.63
14295;BME280;7231;59.370;18.016;2022-09-09T11:08:52;101926.53;;;21.68;39.26
14295;BME280;7231;59.370;18.016;2022-09-09T11:11:27;101914.94;;;22.12;38.65
14295;BME280;7231;59.370;18.016;2022-09-09T11:14:01;101927.22;;;22.65;38.30
14295;BME280;7231;59.370;18.016;2022-09-09T11:16:36;101921.81;;;22.76;36.77
14295;BME280;7231;59.370;18.016;2022-09-09T11:19:14;101817.06;;;21.75;36.60
14295;BME280;7231;59.370;18.016;2022-09-09T11:21:46;101925.53;;;22.41;36.57
14295;BME280;7231;59.370;18.016;2022-09-09T11:24:17;101915.75;;;22.35;36.59
14295;BME280;7231;59.370;18.016;2022-09-09T11:26:49;101888.16;;;22.33;36.59
14295;BME280;7231;59.370;18.016;2022-09-09T11:32:30;101930.75;;;22.81;36.37
14295;BME280;7231;59.370;18.016;2022-09-09T11:35:11;101919.03;;;23.03;36.21
14295;BME280;7231;59.370;18.016;2022-09-09T11:37:58;101916.94;;;23.42;36.02
14295;BME280;7231;59.370;18.016;2022-09-09T11:40:32;101811.91;;;23.18;35.99
14295;BME280;7231;59.370;18.016;2022-09-09T11:43:03;101906.81;;;23.82;35.12
14295;BME280;7231;59.370;18.016;2022-09-09T11:45:34;101916.13;;;23.38;35.78
14295;BME280;7231;59.370;18.016;2022-09-09T11:48:04;101915.84;;;23.70;36.01
14295;BME280;7231;59.370;18.016;2022-09-09T11:50:35;101905.75;;;23.98;35.08
14295;BME280;7231;59.370;18.016;2022-09-09T11:53:22;101903.19;;;23.87;35.03
14295;BME280;7231;59.370;18.016;2022-09-09T11:56:05;101907.59;;;23.91;34.80
14295;BME280;7231;59.370;18.016;2022-09-09T11:58:38;101910.19;;;24.01;35.11
14295;BME280;7231;59.370;18.016;2022-09-09T12:04:29;101898.44;;;24.14;34.81
14295;BME280;7231;59.370;18.016;2022-09-09T12:07:00;101918.28;;;23.94;35.01
14295;BME280;7231;59.370;18.016;2022-09-09T12:09:33;101884.59;;;23.71;35.42
14295;BME280;7231;59.370;18.016;2022-09-09T12:12:20;101901.13;;;24.14;35.07
14295;BME280;7231;59.370;18.016;2022-09-09T12:14:59;101902.41;;;24.56;34.49
14295;BME280;7231;59.370;18.016;2022-09-09T12:17:28;101898.13;;;24.43;34.56
14295;BME280;7231;59.370;18.016;2022-09-09T12:20:06;101893.22;;;24.02;34.56
14295;BME280;7231;59.370;18.016;2022-09-09T12:22:51;101900.03;;;23.40;34.99
14295;BME280;7231;59.370;18.016;2022-09-09T12:25:28;101907.53;;;22.87;35.74
14295;BME280;7231;59.370;18.016;2022-09-09T12:28:04;101884.19;;;23.11;35.96
14295;BME280;7231;59.370;18.016;2022-09-09T12:30:39;101898.56;;;22.94;35.90
14295;BME280;7231;59.370;18.016;2022-09-09T12:33:11;101901.16;;;23.08;36.10
14295;BME280;7231;59.370;18.016;2022-09-09T12:35:43;101906.44;;;23.17;35.49
14295;BME280;7231;59.370;18.016;2022-09-09T12:38:15;101904.72;;;23.12;35.74
14295;BME280;7231;59.370;18.016;2022-09-09T12:40:54;101894.47;;;23.66;35.85
14295;BME280;7231;59.370;18.016;2022-09-09T12:43:25;101889.00;;;24.56;34.58
14295;BME280;7231;59.370;18.016;2022-09-09T12:45:57;101863.88;;;25.24;34.13
14295;BME280;7231;59.370;18.016;2022-09-09T12:48:31;101858.97;;;26.00;33.05
14295;BME280;7231;59.370;18.016;2022-09-09T12:51:19;101887.84;;;25.89;33.42
14295;BME280;7231;59.370;18.016;2022-09-09T12:53:48;101883.34;;;26.36;32.79
14295;BME280;7231;59.370;18.016;2022-09-09T12:56:22;101882.50;;;26.74;31.79
14295;BME280;7231;59.370;18.016;2022-09-09T12:58:54;101866.63;;;26.18;31.92
14295;BME280;7231;59.370;18.016;2022-09-09T13:01:25;101874.78;;;25.14;32.80
14295;BME280;7231;59.370;18.016;2022-09-09T13:03:53;101878.00;;;24.76;33.28
14295;BME280;7231;59.370;18.016;2022-09-09T13:06:24;101868.44;;;25.19;32.97
14295;BME280;7231;59.370;18.016;2022-09-09T13:08:56;101883.34;;;24.79;33.16
14295;BME280;7231;59.370;18.016;2022-09-09T13:11:28;101861.25;;;23.85;33.97
14295;BME280;7231;59.370;18.016;2022-09-09T13:13:58;101882.13;;;23.43;34.89
14295;BME280;7231;59.370;18.016;2022-09-09T13:16:28;101891.59;;;23.85;34.75
14295;BME280;7231;59.370;18.016;2022-09-09T13:19:06;101884.81;;;23.42;34.93
14295;BME280;7231;59.370;18.016;2022-09-09T13:21:38;101883.69;;;23.72;35.17
14295;BME280;7231;59.370;18.016;2022-09-09T13:24:25;101853.06;;;24.71;34.23
14295;BME280;7231;59.370;18.016;2022-09-09T13:26:56;101866.75;;;25.12;33.59